Time;durP1;ratioP1;P1;durP2;ratioP2;P2;SDS_P1;SDS_P2;PMS_P1;PMS_P2;Temp;Humidity;BMP_temperature;BMP_pressure;BME280_temperature;BME280_humidity;BME280_pressure;Samples;Min_cycle;Max_cycle;Signal;HPM_P1;HPM_P2
2022/09/29 11:35:50;;;;;;;0.00;0.00;;;;;;;;;;12325843;19;21133;-63
2022/09/29 11:40:10;;;;;;;0.00;0.00;;;;;;;;;;12332400;19;20063;-63
2022/09/29 11:44:34;;;;;;;0.00;0.00;;;;;;;;;;12329959;19;19994;-63
2022/09/29 11:48:55;;;;;;;0.00;0.00;;;;;;;;;;12330689;19;20210;-63
2022/09/29 11:53:08;;;;;;;0.00;0.00;;;;;;;;;;12330219;19;19989;-63
2022/09/29 11:57:41;;;;;;;0.00;0.00;;;;;;;;;;12331826;19;20010;-64
2022/09/29 12:01:45;;;;;;;0.00;0.00;;;;;;;;;;12326765;19;20006;-65
2022/09/29 12:06:03;;;;;;;0.00;0.00;;;;;;;;;;12328039;19;20027;-64
2022/09/29 12:10:26;;;;;;;0.00;0.00;;;;;;;;;;12163669;19;76840;-64
2022/09/29 12:14:27;;;;;;;0.00;0.00;;;;;;;;;;12247916;19;20033;-64
2022/09/29 12:18:31;;;;;;;0.00;0.00;;;;;;;;;;12324631;19;20022;-64
2022/09/29 12:22:32;;;;;;;0.00;0.00;;;;;;;;;;12322588;19;20818;-63
2022/09/29 12:26:32;;;;;;;0.00;0.00;;;;;;;;;;12322084;19;20215;-63
2022/09/29 12:30:38;;;;;;;0.00;0.00;;;;;;;;;;12326531;19;20100;-63
2022/09/29 12:34:54;;;;;;;0.00;0.00;;;;;;;;;;12319907;19;20022;-65
2022/09/29 12:39:00;;;;;;;0.00;0.00;;;;;;;;;;12330275;19;19991;-66
2022/09/29 12:43:23;;;;;;;0.00;0.00;;;;;;;;;;12325339;19;20107;-66
2022/09/29 12:47:42;;;;;;;0.00;0.00;;;;;;;;;;12281688;19;20003;-67
2022/09/29 12:51:50;;;;;;;0.00;0.00;;;;;;;;;;12279411;19;20345;-71
2022/09/29 12:56:06;;;;;;;0.00;0.00;;;;;;;;;;12278048;19;20017;-69
2022/09/29 13:00:11;;;;;;;0.00;0.00;;;;;;;;;;12281163;19;20226;-66
2022/09/29 13:04:12;;;;;;;0.00;0.00;;;;;;;;;;12276054;19;20002;-68
2022/09/29 13:08:18;;;;;;;0.00;0.00;;;;;;;;;;12281632;19;20071;-66
2022/09/29 13:12:39;;;;;;;0.00;0.00;;;;;;;;;;12279394;19;19990;-67
2022/09/29 13:16:40;;;;;;;0.00;0.00;;;;;;;;;;12278999;19;20017;-67
2022/09/29 13:20:42;;;;;;;0.00;0.00;;;;;;;;;;12281959;19;19991;-66
2022/09/29 13:24:46;;;;;;;0.00;0.00;;;;;;;;;;12275334;19;20831;-68
2022/09/29 13:28:51;;;;;;;0.00;0.00;;;;;;;;;;12279012;19;19995;-67
2022/09/29 13:33:00;;;;;;;0.00;0.00;;;;;;;;;;12279532;19;20016;-68
2022/09/29 13:37:11;;;;;;;0.00;0.00;;;;;;;;;;12275286;19;20007;-66
2022/09/29 13:41:14;;;;;;;0.00;0.00;;;;;;;;;;12279141;19;20050;-68
2022/09/29 13:45:17;;;;;;;0.00;0.00;;;;;;;;;;12273188;19;20021;-66
2022/09/29 13:49:21;;;;;;;0.00;0.00;;;;;;;;;;12279467;19;20021;-67
2022/09/29 13:53:21;;;;;;;0.00;0.00;;;;;;;;;;12275176;19;20081;-66
2022/09/29 13:57:23;;;;;;;0.00;0.00;;;;;;;;;;12273405;19;20560;-67
2022/09/29 14:01:29;;;;;;;0.00;0.00;;;;;;;;;;12272021;19;20002;-69
2022/09/29 14:05:29;;;;;;;0.00;0.00;;;;;;;;;;12056118;19;20010;-68
2022/09/29 14:09:32;;;;;;;0.00;0.00;;;;;;;;;;12271539;19;20002;-66
2022/09/29 14:13:38;;;;;;;0.00;0.00;;;;;;;;;;12276849;19;20433;-67
2022/09/29 14:17:43;;;;;;;0.00;0.00;;;;;;;;;;12272618;19;19999;-66
2022/09/29 14:21:45;;;;;;;0.00;0.00;;;;;;;;;;12275241;19;19999;-67
2022/09/29 14:25:48;;;;;;;;;;;;;;;;;;12276167;19;19995;-70
2022/09/29 14:29:54;;;;;;;0.00;0.00;;;;;;;;;;12275156;19;20043;-69
2022/09/29 14:33:55;;;;;;;0.00;0.00;;;;;;;;;;12272450;19;20290;-67
2022/09/29 14:38:08;;;;;;;0.00;0.00;;;;;;;;;;12275339;19;21511;-67
2022/09/29 14:42:15;;;;;;;0.00;0.00;;;;;;;;;;12273250;19;20014;-69
2022/09/29 14:55:02;;;;;;;0.00;0.00;;;;;;;;;;12270387;19;20101;-69
2022/09/29 14:59:06;;;;;;;0.00;0.00;;;;;;;;;;12269067;19;20002;-68
2022/09/29 15:03:07;;;;;;;0.00;0.00;;;;;;;;;;12269906;19;20226;-68
2022/09/29 15:07:19;;;;;;;0.00;0.00;;;;;;;;;;12270831;19;20054;-68
2022/09/29 15:11:28;;;;;;;0.00;0.00;;;;;;;;;;12273639;19;20051;-69
2022/09/29 15:15:32;;;;;;;0.00;0.00;;;;;;;;;;12270263;19;20906;-68
2022/09/29 15:19:52;;;;;;;0.00;0.00;;;;;;;;;;12265921;19;20050;-65
2022/09/29 15:23:56;;;;;;;0.00;0.00;;;;;;;;;;12271264;19;20250;-67
2022/09/29 15:28:02;;;;;;;0.00;0.00;;;;;;;;;;12270763;19;20006;-67
2022/09/29 15:32:04;;;;;;;0.00;0.00;;;;;;;;;;12271252;19;19995;-66
2022/09/29 15:36:06;;;;;;;0.00;0.00;;;;;;;;;;12271633;19;20034;-68
2022/09/29 15:40:13;;;;;;;0.00;0.00;;;;;;;;;;12268579;19;19999;-68
2022/09/29 15:44:16;;;;;;;0.00;0.00;;;;;;;;;;12270227;19;20014;-68
2022/09/29 15:48:17;;;;;;;0.00;0.00;;;;;;;;;;12267742;19;20086;-67
2022/09/29 15:52:22;;;;;;;0.00;0.00;;;;;;;;;;12272105;19;19999;-66
2022/09/29 15:56:22;;;;;;;0.00;0.00;;;;;;;;;;12267371;19;20549;-67
2022/09/29 16:00:22;;;;;;;0.00;0.00;;;;;;;;;;12267824;19;19997;-67
2022/09/29 16:04:23;;;;;;;0.00;0.00;;;;;;;;;;12271413;19;19998;-68
2022/09/29 16:08:24;;;;;;;0.00;0.00;;;;;;;;;;12270744;19;20453;-67
2022/09/29 16:12:26;;;;;;;0.00;0.00;;;;;;;;;;12267828;19;20006;-67
2022/09/29 16:16:28;;;;;;;0.00;0.00;;;;;;;;;;12268453;19;20226;-68
2022/09/29 16:20:30;;;;;;;0.00;0.00;;;;;;;;;;12275411;19;20007;-66
2022/09/29 16:24:34;;;;;;;0.00;0.00;;;;;;;;;;12275819;19;20079;-67
2022/09/29 16:28:36;;;;;;;0.00;0.00;;;;;;;;;;12276673;19;19987;-67
2022/09/29 16:32:39;;;;;;;0.00;0.00;;;;;;;;;;12276439;19;20002;-67
2022/09/29 16:36:39;;;;;;;;;;;;;;;;;;12282889;19;20760;-68
2022/09/29 16:40:39;;;;;;;0.00;0.00;;;;;;;;;;12283038;19;19950;-68
2022/09/29 16:44:44;;;;;;;0.00;0.00;;;;;;;;;;12277576;19;20022;-68
2022/09/29 16:48:45;;;;;;;0.00;0.00;;;;;;;;;;12280485;19;20026;-66
2022/09/29 16:52:47;;;;;;;0.00;0.00;;;;;;;;;;12277863;19;20005;-68
2022/09/29 16:56:48;;;;;;;0.00;0.00;;;;;;;;;;12280410;19;20007;-68
2022/09/29 17:00:49;;;;;;;0.00;0.00;;;;;;;;;;12274571;19;19998;-66
2022/09/29 17:04:50;;;;;;;0.00;0.00;;;;;;;;;;12275872;19;20066;-66
2022/09/29 17:08:50;;;;;;;0.00;0.00;;;;;;;;;;12278973;19;20457;-67
2022/09/29 17:12:50;;;;;;;0.00;0.00;;;;;;;;;;12278268;19;20014;-67
2022/09/29 17:16:51;;;;;;;0.00;0.00;;;;;;;;;;12273155;19;19990;-68
2022/09/29 17:20:51;;;;;;;0.00;0.00;;;;;;;;;;12279247;19;20214;-66
2022/09/29 17:24:52;;;;;;;0.00;0.00;;;;;;;;;;12278190;19;20006;-67
2022/09/29 17:28:52;;;;;;;0.00;0.00;;;;;;;;;;12279239;19;20002;-67
2022/09/29 17:32:53;;;;;;;0.00;0.00;;;;;;;;;;12276151;19;20019;-67
2022/09/29 17:36:58;;;;;;;0.00;0.00;;;;;;;;;;12273743;19;20446;-67
2022/09/29 17:41:03;;;;;;;0.00;0.00;;;;;;;;;;12274196;19;20009;-68
2022/09/29 17:45:03;;;;;;;0.00;0.00;;;;;;;;;;12273381;19;19995;-67
2022/09/29 17:49:08;;;;;;;0.00;0.00;;;;;;;;;;12279857;19;20021;-67
2022/09/29 17:53:10;;;;;;;0.00;0.00;;;;;;;;;;12274070;19;19998;-67
2022/09/29 17:57:23;;;;;;;0.00;0.00;;;;;;;;;;12276268;19;20226;-67
2022/09/29 18:01:24;;;;;;;0.00;0.00;;;;;;;;;;12272319;19;20390;-66
2022/09/29 18:05:27;;;;;;;0.00;0.00;;;;;;;;;;12270848;19;19999;-66
2022/09/29 18:09:27;;;;;;;;;;;;;;;;;;12272801;19;20214;-68
2022/09/29 18:13:30;;;;;;;0.00;0.00;;;;;;;;;;12278092;19;20107;-66
2022/09/29 18:17:30;;;;;;;0.00;0.00;;;;;;;;;;12272800;19;20003;-66
2022/09/29 18:21:32;;;;;;;0.00;0.00;;;;;;;;;;12271078;19;19990;-67
2022/09/29 18:25:33;;;;;;;0.00;0.00;;;;;;;;;;12271511;19;20453;-67
2022/09/29 18:29:33;;;;;;;0.00;0.00;;;;;;;;;;12275656;19;20006;-66
2022/09/29 18:33:33;;;;;;;0.00;0.00;;;;;;;;;;12273078;19;20250;-67
2022/09/29 18:37:34;;;;;;;0.00;0.00;;;;;;;;;;12275069;19;20017;-67
2022/09/29 18:41:34;;;;;;;0.00;0.00;;;;;;;;;;12267587;19;20197;-65
2022/09/29 18:45:35;;;;;;;0.00;0.00;;;;;;;;;;12271349;19;20468;-66
2022/09/29 18:49:36;;;;;;;0.00;0.00;;;;;;;;;;12274936;19;20449;-66
2022/09/29 18:53:36;;;;;;;0.00;0.00;;;;;;;;;;12271638;19;20030;-66
2022/09/29 18:57:37;;;;;;;0.00;0.00;;;;;;;;;;12273278;19;20445;-67
2022/09/29 19:01:38;;;;;;;0.00;0.00;;;;;;;;;;12269978;19;20007;-66
2022/09/29 19:05:40;;;;;;;0.00;0.00;;;;;;;;;;12273873;19;20036;-66
2022/09/29 19:09:41;;;;;;;0.00;0.00;;;;;;;;;;12273168;19;20154;-66
2022/09/29 19:13:42;;;;;;;0.00;0.00;;;;;;;;;;12267948;19;19983;-67
2022/09/29 19:17:43;;;;;;;0.00;0.00;;;;;;;;;;12270183;19;20036;-66
2022/09/29 19:21:44;;;;;;;0.00;0.00;;;;;;;;;;12269036;19;20006;-65
2022/09/29 19:25:45;;;;;;;0.00;0.00;;;;;;;;;;12268641;19;20007;-66
2022/09/29 19:29:45;;;;;;;0.00;0.00;;;;;;;;;;12266445;19;20529;-66
2022/09/29 19:33:46;;;;;;;0.00;0.00;;;;;;;;;;12271896;19;20086;-67
2022/09/29 19:37:47;;;;;;;0.00;0.00;;;;;;;;;;12272138;19;20013;-66
2022/09/29 19:41:47;;;;;;;0.00;0.00;;;;;;;;;;12272045;19;20010;-67
2022/09/29 19:45:48;;;;;;;0.00;0.00;;;;;;;;;;12268047;19;20011;-67
2022/09/29 19:51:48;;;;;;;0.00;0.00;;;;;;;;;;12266170;19;20009;-66
2022/09/29 19:54:09;;;;;;;0.00;0.00;;;;;;;;;;12268792;19;20011;-67
2022/09/29 19:58:10;;;;;;;0.00;0.00;;;;;;;;;;12048002;19;20235;-67
2022/09/29 20:02:12;;;;;;;0.00;0.00;;;;;;;;;;12280330;19;20022;-66
2022/09/29 20:06:12;;;;;;;0.00;0.00;;;;;;;;;;12279481;19;20002;-66
2022/09/29 20:10:15;;;;;;;0.00;0.00;;;;;;;;;;12282877;19;20024;-68
2022/09/29 20:14:21;;;;;;;0.00;0.00;;;;;;;;;;12281829;19;20022;-67
2022/09/29 20:18:22;;;;;;;0.00;0.00;;;;;;;;;;12280805;19;20091;-66
2022/09/29 20:22:25;;;;;;;0.00;0.00;;;;;;;;;;12276808;19;20086;-66
2022/09/29 20:29:52;;;;;;;0.00;0.00;;;;;;;;;;12153548;19;21058;-66
2022/09/29 20:33:53;;;;;;;0.00;0.00;;;;;;;;;;12328093;19;20126;-66
2022/09/29 20:39:30;;;;;;;0.00;0.00;;;;;;;;;;11998553;19;20540;-66
2022/09/29 20:44:11;;;;;;;0.00;0.00;;;;;;;;;;12126730;19;20685;-67
2022/09/29 20:48:12;;;;;;;0.00;0.00;;;;;;;;;;12231681;19;20022;-66
2022/09/29 20:52:12;;;;;;;0.00;0.00;;;;;;;;;;12331806;19;20003;-66
2022/09/29 20:56:16;;;;;;;0.00;0.00;;;;;;;;;;12333203;19;20468;-67
2022/09/29 21:00:16;;;;;;;0.00;0.00;;;;;;;;;;12332797;19;19998;-66
2022/09/29 21:04:18;;;;;;;0.00;0.00;;;;;;;;;;12331732;19;19999;-66
2022/09/29 21:08:18;;;;;;;0.00;0.00;;;;;;;;;;12330784;19;20026;-67
2022/09/29 21:12:19;;;;;;;0.00;0.00;;;;;;;;;;12331309;19;19990;-67
2022/09/29 21:16:19;;;;;;;0.00;0.00;;;;;;;;;;12330599;19;20453;-67
2022/09/29 21:20:20;;;;;;;0.00;0.00;;;;;;;;;;12331183;19;19986;-66
2022/09/29 21:24:20;;;;;;;0.00;0.00;;;;;;;;;;12332434;19;19998;-67
2022/09/29 21:28:21;;;;;;;0.00;0.00;;;;;;;;;;12322007;19;20010;-66
2022/09/29 21:32:21;;;;;;;0.00;0.00;;;;;;;;;;12331169;19;20005;-67
2022/09/29 21:36:23;;;;;;;0.00;0.00;;;;;;;;;;12328275;19;20073;-67
2022/09/29 21:40:23;;;;;;;0.00;0.00;;;;;;;;;;12325420;19;20113;-67
2022/09/29 21:44:24;;;;;;;0.00;0.00;;;;;;;;;;12324416;19;20076;-67
2022/09/29 21:48:24;;;;;;;0.00;0.00;;;;;;;;;;12323391;19;19999;-67
2022/09/29 21:52:24;;;;;;;0.00;0.00;;;;;;;;;;12318195;19;19987;-67
2022/09/29 21:56:27;;;;;;;0.00;0.00;;;;;;;;;;12279379;19;20026;-67
2022/09/29 22:00:28;;;;;;;0.00;0.00;;;;;;;;;;12277785;19;19979;-67
2022/09/29 22:04:28;;;;;;;0.00;0.00;;;;;;;;;;12280450;19;19995;-67
2022/09/29 22:08:29;;;;;;;0.00;0.00;;;;;;;;;;12276078;19;19991;-67
2022/09/29 22:12:29;;;;;;;0.00;0.00;;;;;;;;;;12276300;19;20022;-67
2022/09/29 22:16:32;;;;;;;0.00;0.00;;;;;;;;;;12272455;19;19987;-66
2022/09/29 22:20:32;;;;;;;;;;;;;;;;;;12280000;19;20067;-66
2022/09/29 22:24:33;;;;;;;0.00;0.00;;;;;;;;;;12281315;19;19971;-67
2022/09/29 22:28:33;;;;;;;0.00;0.00;;;;;;;;;;12278304;19;20605;-66
2022/09/29 22:32:34;;;;;;;0.00;0.00;;;;;;;;;;12279168;19;20277;-67
2022/09/29 22:36:34;;;;;;;0.00;0.00;;;;;;;;;;12274486;19;20050;-66
2022/09/29 22:40:36;;;;;;;0.00;0.00;;;;;;;;;;12272901;19;20122;-67
2022/09/29 22:44:36;;;;;;;0.00;0.00;;;;;;;;;;12278840;19;20033;-67
2022/09/29 22:48:37;;;;;;;0.00;0.00;;;;;;;;;;12277291;19;19999;-67
2022/09/29 22:52:37;;;;;;;0.00;0.00;;;;;;;;;;12274665;19;20003;-67
2022/09/29 22:56:39;;;;;;;0.00;0.00;;;;;;;;;;12273378;19;19998;-67
2022/09/29 23:00:40;;;;;;;0.00;0.00;;;;;;;;;;12280512;19;20057;-67
2022/09/29 23:04:41;;;;;;;0.00;0.00;;;;;;;;;;12270419;19;19999;-67
2022/09/29 23:08:41;;;;;;;0.00;0.00;;;;;;;;;;12278062;19;20014;-67
2022/09/29 23:12:43;;;;;;;0.00;0.00;;;;;;;;;;12273160;19;20059;-68
2022/09/29 23:16:44;;;;;;;0.00;0.00;;;;;;;;;;12272157;19;19999;-68
2022/09/29 23:20:44;;;;;;;0.00;0.00;;;;;;;;;;12277354;19;20474;-67
2022/09/29 23:24:45;;;;;;;0.00;0.00;;;;;;;;;;12271705;19;19987;-68
2022/09/29 23:28:45;;;;;;;0.00;0.00;;;;;;;;;;12277378;19;19998;-66
2022/09/29 23:32:46;;;;;;;0.00;0.00;;;;;;;;;;12273176;19;20026;-66
2022/09/29 23:36:46;;;;;;;0.00;0.00;;;;;;;;;;12272208;19;20006;-66
2022/09/29 23:40:47;;;;;;;0.00;0.00;;;;;;;;;;12271651;19;20120;-67
2022/09/29 23:44:47;;;;;;;0.00;0.00;;;;;;;;;;12272463;19;20182;-66
2022/09/29 23:48:49;;;;;;;0.00;0.00;;;;;;;;;;12269738;19;20195;-66
2022/09/29 23:52:49;;;;;;;0.00;0.00;;;;;;;;;;12269724;19;20007;-67
2022/09/29 23:56:50;;;;;;;0.00;0.00;;;;;;;;;;12274032;19;20006;-67
